createdAt,value
2019-06-07T00:01:13.805Z,15.50
2019-06-07T00:03:42.361Z,17.98
2019-06-07T00:06:16.408Z,16.12
2019-06-07T00:08:41.393Z,15.18
2019-06-07T00:11:11.086Z,16.32
2019-06-07T00:13:41.101Z,16.90
2019-06-07T00:16:11.943Z,16.27
2019-06-07T00:18:39.941Z,14.53
2019-06-07T00:21:09.934Z,16.85
2019-06-07T00:23:38.604Z,15.95
2019-06-07T00:26:08.385Z,14.07
2019-06-07T00:28:37.152Z,15.13
2019-06-07T00:31:05.748Z,17.40
2019-06-07T00:33:34.359Z,15.27
2019-06-07T00:36:03.058Z,18.50
2019-06-07T00:38:31.624Z,15.72
2019-06-07T00:41:00.264Z,16.67
2019-06-07T00:43:28.986Z,15.05
2019-06-07T00:45:57.546Z,16.77
2019-06-07T00:48:32.000Z,19.97
2019-06-07T00:50:56.466Z,18.30
2019-06-07T00:53:31.655Z,16.37
2019-06-07T00:55:55.478Z,17.25
2019-06-07T00:58:27.489Z,18.23
2019-06-07T01:00:54.530Z,16.48
2019-06-07T01:03:25.681Z,18.93
2019-06-07T01:05:53.649Z,16.37
2019-06-07T01:08:27.707Z,17.13
2019-06-07T01:10:54.457Z,20.73
2019-06-07T01:13:26.483Z,17.95
2019-06-07T01:15:53.530Z,18.23
2019-06-07T01:18:43.584Z,19.50
2019-06-07T01:20:52.490Z,17.42
2019-06-07T01:23:59.825Z,20.68
2019-06-07T01:25:51.258Z,19.13
2019-06-07T01:28:21.391Z,16.57
2019-06-07T01:30:51.528Z,17.07
2019-06-07T01:33:20.796Z,16.53
2019-06-07T01:35:50.122Z,18.82
2019-06-07T01:38:21.935Z,18.37
2019-06-07T01:40:48.997Z,18.77
2019-06-07T01:43:19.566Z,19.50
2019-06-07T01:45:48.070Z,22.00
2019-06-07T01:48:19.814Z,18.32
2019-06-07T01:50:46.960Z,19.65
2019-06-07T01:53:15.531Z,21.13
2019-06-07T01:55:44.467Z,17.87
2019-06-07T01:58:13.198Z,17.87
2019-06-07T02:00:41.977Z,17.55
2019-06-07T02:03:10.577Z,20.08
2019-06-07T02:05:39.153Z,21.37
2019-06-07T02:08:07.918Z,21.52
2019-06-07T02:10:36.536Z,21.30
2019-06-07T02:13:05.269Z,22.02
2019-06-07T02:15:36.553Z,21.52
2019-06-07T02:18:04.110Z,17.87
2019-06-07T02:20:34.443Z,20.27
2019-06-07T02:23:03.411Z,19.25
2019-06-07T02:25:45.378Z,19.00
2019-06-07T02:28:26.420Z,18.00
2019-06-07T02:30:44.817Z,19.57
2019-06-07T02:33:02.901Z,23.32
2019-06-07T02:35:39.534Z,21.55
2019-06-07T02:38:01.819Z,20.65
2019-06-07T02:40:36.488Z,19.40
2019-06-07T02:43:00.966Z,20.10
2019-06-07T02:45:36.145Z,21.45
2019-06-07T02:47:59.934Z,23.00
2019-06-07T02:50:35.378Z,21.00
2019-06-07T02:52:58.882Z,23.00
2019-06-07T02:55:29.662Z,21.57
2019-06-07T02:57:57.761Z,23.30
2019-06-07T03:01:09.159Z,22.13
2019-06-07T03:03:22.389Z,21.97
2019-06-07T03:05:50.589Z,22.27
2019-06-07T03:08:19.283Z,22.23
2019-06-07T03:10:50.991Z,24.52
2019-06-07T03:13:21.346Z,21.52
2019-06-07T03:15:53.214Z,19.77
2019-06-07T03:18:41.669Z,20.23
2019-06-07T03:21:11.808Z,25.23
2019-06-07T03:23:41.060Z,25.95
2019-06-07T03:26:09.767Z,19.45
2019-06-07T03:28:39.584Z,21.73
2019-06-07T03:31:08.431Z,21.15
2019-06-07T03:33:42.697Z,20.43
2019-06-07T03:36:23.375Z,21.37
2019-06-07T03:38:39.953Z,20.00
2019-06-07T03:41:08.077Z,20.02
2019-06-07T03:43:40.450Z,21.52
2019-06-07T03:46:07.054Z,21.82
2019-06-07T03:48:39.065Z,20.27
2019-06-07T03:51:23.692Z,19.42
2019-06-07T03:53:37.287Z,20.45
2019-06-07T03:56:06.702Z,22.90
2019-06-07T03:58:47.989Z,22.22
2019-06-07T04:01:05.963Z,24.70
2019-06-07T04:03:43.585Z,21.27
2019-06-07T04:06:05.112Z,19.73
2019-06-07T04:08:38.352Z,25.05
2019-06-07T04:11:05.550Z,21.77
2019-06-07T04:13:37.575Z,23.07
2019-06-07T04:16:06.685Z,21.85
2019-06-07T04:18:36.448Z,24.47
2019-06-07T04:21:05.570Z,21.23
2019-06-07T04:23:37.601Z,20.63
2019-06-07T04:26:04.507Z,19.65
2019-06-07T04:29:25.957Z,20.80
2019-06-07T04:31:03.799Z,19.92
2019-06-07T04:33:37.051Z,19.92
2019-06-07T04:36:03.589Z,18.98
2019-06-07T04:38:39.232Z,18.73
2019-06-07T04:41:04.483Z,21.30
2019-06-07T04:43:35.503Z,19.57
2019-06-07T04:46:04.696Z,18.67
2019-06-07T04:48:36.008Z,22.42
2019-06-07T04:51:04.951Z,16.73
2019-06-07T04:53:35.256Z,18.65
2019-06-07T04:56:04.251Z,18.67
2019-06-07T04:58:33.363Z,20.10
2019-06-07T05:01:03.609Z,20.68
2019-06-07T05:03:37.113Z,19.30
2019-06-07T05:06:03.342Z,17.56
2019-06-07T05:08:35.147Z,20.50
2019-06-07T05:11:02.356Z,19.57
2019-06-07T05:13:35.319Z,17.55
2019-06-07T05:16:01.225Z,20.07
2019-06-07T05:18:29.803Z,19.07
2019-06-07T05:20:59.149Z,18.37
2019-06-07T05:24:04.823Z,19.13
2019-06-07T05:25:58.554Z,19.67
2019-06-07T05:28:27.219Z,15.93
2019-06-07T05:31:04.458Z,20.90
2019-06-07T05:33:25.995Z,16.10
2019-06-07T05:35:54.661Z,18.32
2019-06-07T05:38:23.266Z,17.48
2019-06-07T05:40:51.914Z,16.60
2019-06-07T05:43:25.675Z,16.77
2019-06-07T05:45:54.451Z,19.97
2019-06-07T05:48:23.214Z,18.20
2019-06-07T05:50:56.778Z,17.85
2019-06-07T05:53:22.307Z,19.80
2019-06-07T05:55:51.195Z,19.40
2019-06-07T05:58:19.858Z,19.70
2019-06-07T06:00:48.566Z,21.55
2019-06-07T06:03:17.378Z,19.00
2019-06-07T06:05:54.584Z,20.02
2019-06-07T06:08:16.286Z,23.70
2019-06-07T06:10:48.409Z,21.70
2019-06-07T06:13:15.323Z,21.60
2019-06-07T06:15:56.160Z,20.27
2019-06-07T06:18:14.214Z,23.83
2019-06-07T06:21:06.863Z,26.07
2019-06-07T06:23:13.226Z,26.00
2019-06-07T06:25:50.166Z,27.98
2019-06-07T06:28:13.184Z,27.05
2019-06-07T06:30:45.593Z,21.87
2019-06-07T06:33:30.662Z,25.20
2019-06-07T06:35:47.480Z,26.63
2019-06-07T06:38:13.844Z,22.20
2019-06-07T06:40:46.312Z,26.42
2019-06-07T06:43:12.814Z,24.25
2019-06-07T06:45:42.926Z,24.30
2019-06-07T06:48:11.774Z,27.85
2019-06-07T06:50:41.163Z,23.35
2019-06-07T06:53:10.290Z,22.55
2019-06-07T06:55:39.128Z,23.45
2019-06-07T06:58:07.724Z,23.38
2019-06-07T07:00:55.447Z,24.67
2019-06-07T07:03:56.741Z,23.60
2019-06-07T07:05:50.793Z,23.00
2019-06-07T07:08:17.812Z,22.73
2019-06-07T07:10:52.092Z,20.85
2019-06-07T07:13:17.208Z,21.67
2019-06-07T07:15:48.087Z,19.27
2019-06-07T07:18:16.147Z,18.50
2019-06-07T07:20:45.905Z,20.25
2019-06-07T07:23:15.142Z,19.77
2019-06-07T07:25:46.941Z,20.43
2019-06-07T07:28:14.328Z,20.72
2019-06-07T07:30:57.186Z,20.48
2019-06-07T07:33:26.113Z,20.92
2019-06-07T07:36:15.817Z,20.75
2019-06-07T07:38:25.251Z,23.70
2019-06-07T07:41:09.048Z,20.10
2019-06-07T07:43:24.882Z,21.87
2019-06-07T07:46:01.448Z,20.60
2019-06-07T07:48:23.926Z,17.60
2019-06-07T07:50:58.860Z,23.57
2019-06-07T07:53:22.833Z,22.42
2019-06-07T07:55:54.965Z,17.85
2019-06-07T07:58:21.719Z,22.02
2019-06-07T08:00:57.509Z,19.00
2019-06-07T08:03:20.831Z,22.37
2019-06-07T08:05:52.009Z,22.87
2019-06-07T08:08:21.929Z,27.32
2019-06-07T08:10:53.683Z,29.90
2019-06-07T08:13:25.985Z,31.90
2019-06-07T08:15:53.343Z,30.10
2019-06-07T08:18:21.587Z,28.32
2019-06-07T08:21:08.728Z,31.52
2019-06-07T08:23:20.511Z,29.07
2019-06-07T08:25:49.281Z,26.85
2019-06-07T08:28:17.958Z,34.83
2019-06-07T08:30:50.871Z,31.23
2019-06-07T08:33:25.856Z,29.32
2019-06-07T08:38:30.353Z,28.62
2019-06-07T08:40:54.578Z,32.95
2019-06-07T08:43:21.097Z,30.88
2019-06-07T08:45:53.172Z,29.30
2019-06-07T08:48:28.058Z,27.37
2019-06-07T08:50:54.259Z,28.15
2019-06-07T08:53:19.925Z,29.37
2019-06-07T08:55:48.575Z,29.10
2019-06-07T08:58:17.212Z,26.37
2019-06-07T09:00:47.435Z,27.85
2019-06-07T09:03:15.971Z,20.65
2019-06-07T09:05:45.264Z,20.75
2019-06-07T09:08:29.194Z,22.15
2019-06-07T09:10:44.082Z,23.83
2019-06-07T09:13:12.749Z,22.25
2019-06-07T09:15:41.370Z,14.75
2019-06-07T09:18:38.366Z,17.75
2019-06-07T09:20:48.537Z,16.97
2019-06-07T09:23:17.905Z,16.17
2019-06-07T09:25:57.168Z,17.90
2019-06-07T09:28:20.322Z,14.05
2019-06-07T09:30:47.818Z,14.73
2019-06-07T09:33:16.504Z,54.48
2019-06-07T09:35:45.249Z,14.38
2019-06-07T09:38:24.836Z,14.18
2019-06-07T09:40:44.554Z,14.73
2019-06-07T09:45:43.489Z,17.12
2019-06-07T09:48:16.268Z,13.33
2019-06-07T09:50:42.491Z,12.45
2019-06-07T09:53:21.941Z,14.55
2019-06-07T09:55:41.557Z,10.50
2019-06-07T09:58:49.243Z,12.93
2019-06-07T10:00:42.690Z,10.82
2019-06-07T10:03:20.484Z,8.65
2019-06-07T10:05:42.352Z,10.70
2019-06-07T10:08:41.457Z,10.00
2019-06-07T10:10:42.983Z,8.03
2019-06-07T10:13:11.528Z,8.25
2019-06-07T10:15:40.527Z,9.43
2019-06-07T10:18:09.415Z,11.60
2019-06-07T10:20:38.246Z,8.05
2019-06-07T10:23:08.066Z,9.77
2019-06-07T10:25:37.019Z,8.35
2019-06-07T10:28:06.133Z,6.33
2019-06-07T10:30:35.017Z,5.75
2019-06-07T10:33:04.910Z,6.75
2019-06-07T10:35:34.080Z,6.97
2019-06-07T10:38:02.667Z,7.25
2019-06-07T10:40:31.408Z,6.43
2019-06-07T10:43:01.167Z,8.83
2019-06-07T10:45:29.970Z,5.45
2019-06-07T10:47:58.574Z,5.28
2019-06-07T10:50:27.264Z,5.28
2019-06-07T10:52:55.910Z,10.30
2019-06-07T10:55:25.269Z,7.90
2019-06-07T10:57:53.907Z,7.80
2019-06-07T11:00:25.729Z,4.83
2019-06-07T11:02:55.312Z,5.45
2019-06-07T11:05:24.242Z,5.00
2019-06-07T11:07:52.984Z,5.90
2019-06-07T11:10:40.882Z,7.87
2019-06-07T11:13:21.674Z,7.95
2019-06-07T11:15:50.440Z,4.80
2019-06-07T11:18:19.164Z,6.00
2019-06-07T11:20:48.264Z,5.12
2019-06-07T11:23:16.809Z,7.83
2019-06-07T11:25:45.459Z,5.87
2019-06-07T11:28:14.681Z,5.67
2019-06-07T11:30:43.515Z,5.17
2019-06-07T11:33:15.793Z,7.97
2019-06-07T11:35:42.746Z,5.30
2019-06-07T11:38:12.585Z,7.35
2019-06-07T11:40:41.241Z,6.65
2019-06-07T11:43:10.755Z,6.70
2019-06-07T11:45:39.651Z,7.70
2019-06-07T11:48:09.079Z,6.60
2019-06-07T11:50:37.794Z,5.83
2019-06-07T11:53:06.561Z,7.37
2019-06-07T11:55:35.222Z,7.57
2019-06-07T11:58:04.027Z,8.38
2019-06-07T12:00:34.456Z,6.75
2019-06-07T12:03:03.672Z,5.47
2019-06-07T12:05:32.301Z,6.80
2019-06-07T12:08:01.033Z,8.73
2019-06-07T12:10:41.818Z,8.88
2019-06-07T12:13:02.546Z,7.25
2019-06-07T12:15:31.219Z,7.07
2019-06-07T12:17:59.933Z,6.83
2019-06-07T12:20:28.604Z,4.53
2019-06-07T12:22:57.137Z,5.57
2019-06-07T12:25:25.768Z,4.58
2019-06-07T12:27:54.389Z,4.65
2019-06-07T12:30:27.662Z,4.92
2019-06-07T12:32:53.378Z,7.75
2019-06-07T12:35:21.957Z,6.30
2019-06-07T12:37:50.509Z,8.75
2019-06-07T12:40:30.282Z,6.53
2019-06-07T12:42:49.689Z,6.25
2019-06-07T12:45:42.415Z,4.45
2019-06-07T12:47:48.734Z,9.33
2019-06-07T12:50:17.546Z,9.68
2019-06-07T12:52:46.103Z,7.53
2019-06-07T12:55:16.051Z,6.95
2019-06-07T12:57:45.156Z,6.57
2019-06-07T13:00:14.453Z,7.10
2019-06-07T13:02:43.085Z,6.05
2019-06-07T13:05:12.023Z,6.67
2019-06-07T13:07:40.802Z,8.15
2019-06-07T13:10:10.040Z,10.18
2019-06-07T13:12:38.859Z,9.65
2019-06-07T13:15:07.997Z,8.53
2019-06-07T13:17:37.663Z,9.82
2019-06-07T13:20:09.563Z,9.37
2019-06-07T13:22:38.192Z,10.23
2019-06-07T13:25:07.613Z,10.13
2019-06-07T13:27:36.483Z,9.80
2019-06-07T13:30:11.375Z,10.45
2019-06-07T13:32:39.730Z,8.20
2019-06-07T13:35:09.518Z,8.78
2019-06-07T13:37:38.182Z,5.08
2019-06-07T13:40:07.678Z,5.72
2019-06-07T13:42:36.418Z,5.30
2019-06-07T13:45:07.125Z,5.42
2019-06-07T13:47:35.888Z,6.25
2019-06-07T13:50:09.296Z,6.17
2019-06-07T13:52:37.910Z,4.28
2019-06-07T13:55:07.334Z,6.95
2019-06-07T13:57:36.196Z,4.17
2019-06-07T14:00:11.659Z,5.30
2019-06-07T14:02:40.480Z,5.03
2019-06-07T14:05:09.681Z,5.22
2019-06-07T14:07:38.255Z,4.67
2019-06-07T14:10:11.165Z,4.85
2019-06-07T14:12:37.749Z,3.95
2019-06-07T14:15:07.369Z,3.35
2019-06-07T14:17:35.993Z,4.17
2019-06-07T14:20:10.160Z,3.50
2019-06-07T14:22:39.343Z,3.65
2019-06-07T14:25:09.549Z,4.78
2019-06-07T14:27:38.216Z,3.12
2019-06-07T14:30:10.967Z,3.47
2019-06-07T14:32:39.582Z,5.35
2019-06-07T14:35:08.838Z,3.87
2019-06-07T14:37:37.600Z,4.78
2019-06-07T14:40:08.791Z,4.00
2019-06-07T14:42:37.500Z,3.67
2019-06-07T14:45:07.046Z,6.55
2019-06-07T14:47:35.695Z,3.72
2019-06-07T14:50:06.064Z,2.95
2019-06-07T14:52:35.134Z,3.12
2019-06-07T14:55:08.452Z,3.85
2019-06-07T14:57:37.872Z,5.08
2019-06-07T15:00:11.212Z,7.45
2019-06-07T15:02:40.584Z,4.33
2019-06-07T15:05:09.674Z,4.45
2019-06-07T15:07:40.554Z,4.35
2019-06-07T15:10:09.473Z,6.42
2019-06-07T15:12:39.626Z,5.22
2019-06-07T15:15:09.477Z,6.37
2019-06-07T15:17:39.240Z,4.85
2019-06-07T15:20:09.290Z,4.80
2019-06-07T15:22:38.743Z,3.72
2019-06-07T15:25:08.143Z,4.10
2019-06-07T15:27:37.731Z,6.03
2019-06-07T15:30:11.314Z,7.70
2019-06-07T15:32:41.562Z,4.05
2019-06-07T15:35:10.373Z,3.42
2019-06-07T15:37:39.457Z,3.67
2019-06-07T15:40:10.108Z,4.87
2019-06-07T15:42:50.026Z,4.60
2019-06-07T15:45:09.530Z,8.07
2019-06-07T15:47:38.552Z,4.23
2019-06-07T15:50:09.045Z,4.95
2019-06-07T15:52:38.252Z,5.60
2019-06-07T15:55:08.810Z,4.53
2019-06-07T15:57:37.492Z,4.85
2019-06-07T16:00:11.135Z,3.92
2019-06-07T16:02:39.853Z,3.87
2019-06-07T16:05:09.573Z,3.45
2019-06-07T16:07:38.358Z,2.95
2019-06-07T16:10:08.655Z,3.25
2019-06-07T16:12:37.228Z,3.50
2019-06-07T16:15:08.268Z,3.58
2019-06-07T16:17:37.578Z,4.25
2019-06-07T16:20:07.261Z,4.90
2019-06-07T16:22:35.987Z,3.77
2019-06-07T16:25:06.739Z,3.10
2019-06-07T16:27:36.756Z,5.25
2019-06-07T16:30:09.261Z,3.80
2019-06-07T16:32:39.330Z,6.17
2019-06-07T16:35:09.254Z,3.53
2019-06-07T16:37:40.481Z,3.70
2019-06-07T16:40:11.279Z,3.83
2019-06-07T16:42:40.596Z,2.30
2019-06-07T16:45:11.177Z,5.12
2019-06-07T16:47:42.374Z,3.95
2019-06-07T16:50:12.251Z,2.98
2019-06-07T16:52:41.908Z,2.62
2019-06-07T16:55:11.629Z,3.42
2019-06-07T16:57:40.977Z,3.05
2019-06-07T17:00:12.715Z,2.75
2019-06-07T17:02:42.258Z,2.00
2019-06-07T17:05:11.802Z,2.45
2019-06-07T17:07:41.939Z,2.70
2019-06-07T17:10:11.690Z,2.15
2019-06-07T17:12:40.730Z,5.08
2019-06-07T17:15:11.551Z,2.90
2019-06-07T17:17:41.028Z,3.77
2019-06-07T17:20:10.536Z,6.00
2019-06-07T17:22:39.243Z,5.00
2019-06-07T17:25:08.435Z,4.00
2019-06-07T17:27:37.145Z,3.80
2019-06-07T17:30:11.033Z,4.45
2019-06-07T17:32:50.567Z,2.40
2019-06-07T17:35:10.295Z,3.30
2019-06-07T17:37:41.619Z,4.03
2019-06-07T17:40:10.077Z,2.83
2019-06-07T17:42:38.780Z,2.40
2019-06-07T17:45:12.328Z,3.70
2019-06-07T17:47:41.635Z,3.12
2019-06-07T17:50:12.295Z,4.42
2019-06-07T17:52:41.747Z,4.00
2019-06-07T17:55:11.006Z,3.08
2019-06-07T17:57:39.655Z,4.22
2019-06-07T18:02:42.659Z,2.40
2019-06-07T18:05:11.958Z,2.92
2019-06-07T18:07:40.934Z,3.52
2019-06-07T18:10:11.207Z,4.97
2019-06-07T18:12:39.980Z,4.15
2019-06-07T18:15:10.745Z,2.70
2019-06-07T18:17:39.531Z,5.27
2019-06-07T18:20:10.218Z,4.63
2019-06-07T18:22:39.030Z,4.03
2019-06-07T18:25:08.390Z,4.22
2019-06-07T18:27:37.169Z,3.87
2019-06-07T18:30:11.571Z,4.10
2019-06-07T18:32:40.121Z,2.80
2019-06-07T18:35:28.093Z,3.75
2019-06-07T18:37:56.675Z,3.75
2019-06-07T18:40:25.471Z,4.40
2019-06-07T18:42:55.264Z,3.70
2019-06-07T18:45:23.985Z,3.05
2019-06-07T18:47:53.700Z,3.67
2019-06-07T18:50:24.621Z,4.47
2019-06-07T18:52:54.887Z,6.03
2019-06-07T18:55:23.438Z,6.72
2019-06-07T18:57:52.225Z,3.90
2019-06-07T19:00:23.293Z,3.12
2019-06-07T19:02:53.875Z,3.83
2019-06-07T19:05:23.448Z,7.92
2019-06-07T19:07:52.520Z,5.55
2019-06-07T19:10:23.893Z,9.48
2019-06-07T19:12:53.093Z,7.05
2019-06-07T19:15:22.947Z,7.83
2019-06-07T19:17:52.111Z,11.03
2019-06-07T19:20:21.880Z,12.00
2019-06-07T19:22:52.064Z,10.48
2019-06-07T19:25:20.873Z,13.70
2019-06-07T19:27:50.620Z,12.50
2019-06-07T19:30:20.920Z,14.20
2019-06-07T19:32:51.220Z,14.00
2019-06-07T19:35:20.089Z,14.58
2019-06-07T19:37:48.700Z,14.78
2019-06-07T19:40:17.491Z,12.40
2019-06-07T19:42:46.185Z,12.53
2019-06-07T19:45:31.655Z,13.72
2019-06-07T19:47:45.527Z,13.83
2019-06-07T19:50:14.746Z,13.43
2019-06-07T19:52:43.302Z,13.97
2019-06-07T19:55:12.527Z,14.70
2019-06-07T19:57:42.018Z,12.33
2019-06-07T20:00:14.410Z,14.45
2019-06-07T20:05:13.123Z,18.10
2019-06-07T20:07:42.438Z,14.28
2019-06-07T20:10:12.634Z,15.13
2019-06-07T20:12:41.370Z,14.03
2019-06-07T20:15:27.207Z,9.90
2019-06-07T20:17:40.988Z,11.97
2019-06-07T20:20:10.317Z,13.55
2019-06-07T20:22:38.878Z,16.07
2019-06-07T20:25:09.277Z,12.94
2019-06-07T20:27:38.137Z,12.45
2019-06-07T20:30:09.704Z,11.85
2019-06-07T20:32:38.445Z,12.93
2019-06-07T20:35:08.401Z,14.30
2019-06-07T20:37:37.168Z,9.97
2019-06-07T20:40:22.855Z,11.63
2019-06-07T20:42:39.788Z,12.18
2019-06-07T20:45:08.829Z,10.75
2019-06-07T20:47:37.532Z,9.48
2019-06-07T20:50:08.653Z,10.53
2019-06-07T20:52:38.134Z,11.50
2019-06-07T20:55:09.415Z,9.67
2019-06-07T20:57:39.262Z,12.35
2019-06-07T21:00:16.687Z,10.53
2019-06-07T21:02:40.602Z,11.25
2019-06-07T21:05:09.918Z,10.00
2019-06-07T21:07:38.913Z,10.75
2019-06-07T21:10:08.532Z,11.63
2019-06-07T21:12:37.657Z,12.20
2019-06-07T21:15:14.099Z,12.00
2019-06-07T21:17:40.606Z,12.23
2019-06-07T21:20:13.984Z,12.20
2019-06-07T21:22:40.501Z,10.75
2019-06-07T21:25:11.273Z,12.07
2019-06-07T21:27:40.237Z,11.50
2019-06-07T21:30:09.748Z,10.68
2019-06-07T21:32:38.561Z,10.35
2019-06-07T21:35:08.064Z,10.13
2019-06-07T21:37:36.803Z,10.48
2019-06-07T21:40:06.189Z,10.45
2019-06-07T21:42:34.809Z,10.72
2019-06-07T21:45:06.287Z,13.72
2019-06-07T21:47:34.887Z,11.10
2019-06-07T21:50:04.972Z,11.48
2019-06-07T21:52:33.852Z,12.25
2019-06-07T21:55:02.823Z,11.25
2019-06-07T21:57:32.102Z,11.73
2019-06-07T22:00:00.679Z,11.68
2019-06-07T22:02:29.465Z,16.48
2019-06-07T22:04:58.101Z,11.35
2019-06-07T22:07:26.821Z,12.10
2019-06-07T22:09:55.381Z,10.27
2019-06-07T22:12:23.951Z,13.95
2019-06-07T22:14:52.575Z,15.96
2019-06-07T22:17:21.161Z,13.22
2019-06-07T22:19:50.270Z,12.80
2019-06-07T22:22:18.890Z,16.25
2019-06-07T22:24:47.590Z,15.30
2019-06-07T22:27:17.601Z,13.38
2019-06-07T22:29:46.275Z,14.83
2019-06-07T22:32:15.046Z,14.70
2019-06-07T22:34:43.643Z,14.73
2019-06-07T22:37:14.720Z,16.05
2019-06-07T22:39:42.532Z,15.00
2019-06-07T22:42:11.967Z,12.60
2019-06-07T22:44:41.727Z,13.43
2019-06-07T22:47:10.404Z,14.50
2019-06-07T22:49:39.021Z,13.72
2019-06-07T22:52:09.315Z,15.03
2019-06-07T22:54:37.957Z,12.83
2019-06-07T22:57:14.189Z,15.05
2019-06-07T22:59:42.766Z,12.82
2019-06-07T23:02:12.542Z,15.23
2019-06-07T23:04:41.297Z,14.73
2019-06-07T23:07:10.800Z,14.38
2019-06-07T23:09:39.571Z,14.80
2019-06-07T23:12:09.127Z,13.00
2019-06-07T23:14:37.744Z,19.82
2019-06-07T23:17:06.328Z,16.82
2019-06-07T23:19:34.900Z,23.40
2019-06-07T23:22:03.610Z,23.92
2019-06-07T23:24:32.268Z,23.60
2019-06-07T23:27:00.939Z,24.15
2019-06-07T23:29:29.510Z,23.90
2019-06-07T23:31:58.160Z,22.93
2019-06-07T23:34:26.748Z,24.30
2019-06-07T23:36:55.303Z,24.95
2019-06-07T23:39:23.886Z,25.15
2019-06-07T23:41:52.471Z,23.95
2019-06-07T23:44:21.487Z,24.30
2019-06-07T23:46:50.333Z,24.00
2019-06-07T23:49:19.608Z,22.73
2019-06-07T23:51:48.185Z,22.00
2019-06-07T23:54:17.838Z,23.18
2019-06-07T23:56:46.485Z,22.02
2019-06-07T23:59:16.106Z,17.80
